sensor_id;sensor_type;location;lat;lon;timestamp;temperature;humidity
21061;DHT22;10689;50.836;3.266;2022-10-19T00:03:28;13.10;99.90
21061;DHT22;10689;50.836;3.266;2022-10-19T00:05:54;13.10;99.90
21061;DHT22;10689;50.836;3.266;2022-10-19T00:08:19;13.00;99.90
21061;DHT22;10689;50.836;3.266;2022-10-19T00:10:45;13.00;99.90
21061;DHT22;10689;50.836;3.266;2022-10-19T00:13:11;12.90;99.90
21061;DHT22;10689;50.836;3.266;2022-10-19T00:15:40;12.80;99.90
21061;DHT22;10689;50.836;3.266;2022-10-19T00:18:07;12.80;99.90
21061;DHT22;10689;50.836;3.266;2022-10-19T00:20:34;12.70;99.90
21061;DHT22;10689;50.836;3.266;2022-10-19T00:23:01;12.70;99.90
21061;DHT22;10689;50.836;3.266;2022-10-19T00:25:27;12.70;99.90
21061;DHT22;10689;50.836;3.266;2022-10-19T00:27:53;12.70;99.90
21061;DHT22;10689;50.836;3.266;2022-10-19T00:30:18;12.80;99.90
21061;DHT22;10689;50.836;3.266;2022-10-19T00:32:44;12.70;99.90
21061;DHT22;10689;50.836;3.266;2022-10-19T00:35:10;12.70;99.90
21061;DHT22;10689;50.836;3.266;2022-10-19T00:37:35;12.70;99.90
21061;DHT22;10689;50.836;3.266;2022-10-19T00:40:02;12.70;99.90
21061;DHT22;10689;50.836;3.266;2022-10-19T00:42:28;12.60;99.90
21061;DHT22;10689;50.836;3.266;2022-10-19T00:44:57;12.60;99.90
21061;DHT22;10689;50.836;3.266;2022-10-19T00:47:23;12.60;99.90
21061;DHT22;10689;50.836;3.266;2022-10-19T00:49:49;12.50;99.90
21061;DHT22;10689;50.836;3.266;2022-10-19T00:52:18;12.60;99.90
21061;DHT22;10689;50.836;3.266;2022-10-19T00:54:46;12.50;99.90
21061;DHT22;10689;50.836;3.266;2022-10-19T00:57:13;12.50;99.90
21061;DHT22;10689;50.836;3.266;2022-10-19T00:59:41;12.40;99.90
21061;DHT22;10689;50.836;3.266;2022-10-19T01:02:07;12.40;99.90
21061;DHT22;10689;50.836;3.266;2022-10-19T01:04:36;12.30;99.90
21061;DHT22;10689;50.836;3.266;2022-10-19T01:07:04;12.20;99.90
21061;DHT22;10689;50.836;3.266;2022-10-19T01:09:30;12.10;99.90
21061;DHT22;10689;50.836;3.266;2022-10-19T01:12:05;12.20;99.90
21061;DHT22;10689;50.836;3.266;2022-10-19T01:20:27;12.20;99.90
21061;DHT22;10689;50.836;3.266;2022-10-19T01:26:10;12.30;99.90
21061;DHT22;10689;50.836;3.266;2022-10-19T01:31:40;12.40;99.90
21061;DHT22;10689;50.836;3.266;2022-10-19T01:34:24;12.30;99.90
21061;DHT22;10689;50.836;3.266;2022-10-19T01:39:53;12.20;99.90
21061;DHT22;10689;50.836;3.266;2022-10-19T01:47:53;12.20;99.90
21061;DHT22;10689;50.836;3.266;2022-10-19T01:50:24;12.20;99.90
21061;DHT22;10689;50.836;3.266;2022-10-19T01:52:54;12.20;99.90
21061;DHT22;10689;50.836;3.266;2022-10-19T01:55:21;12.20;99.90
21061;DHT22;10689;50.836;3.266;2022-10-19T01:57:58;12.10;99.90
21061;DHT22;10689;50.836;3.266;2022-10-19T02:00:26;12.10;99.90
21061;DHT22;10689;50.836;3.266;2022-10-19T02:02:53;12.10;99.90
21061;DHT22;10689;50.836;3.266;2022-10-19T02:05:22;12.00;99.90
21061;DHT22;10689;50.836;3.266;2022-10-19T02:07:53;12.00;99.90
21061;DHT22;10689;50.836;3.266;2022-10-19T02:10:21;12.00;99.90
21061;DHT22;10689;50.836;3.266;2022-10-19T02:12:47;12.00;99.90
21061;DHT22;10689;50.836;3.266;2022-10-19T02:15:17;12.00;99.90
21061;DHT22;10689;50.836;3.266;2022-10-19T02:17:46;12.00;99.90
21061;DHT22;10689;50.836;3.266;2022-10-19T02:20:14;12.00;99.90
21061;DHT22;10689;50.836;3.266;2022-10-19T02:22:40;12.00;99.90
21061;DHT22;10689;50.836;3.266;2022-10-19T02:25:07;11.90;99.90
21061;DHT22;10689;50.836;3.266;2022-10-19T02:27:34;12.00;99.90
21061;DHT22;10689;50.836;3.266;2022-10-19T02:30:03;11.90;99.90
21061;DHT22;10689;50.836;3.266;2022-10-19T02:32:29;11.90;99.90
21061;DHT22;10689;50.836;3.266;2022-10-19T02:34:55;11.80;99.90
21061;DHT22;10689;50.836;3.266;2022-10-19T02:37:23;11.80;99.90
21061;DHT22;10689;50.836;3.266;2022-10-19T02:39:48;11.80;99.90
21061;DHT22;10689;50.836;3.266;2022-10-19T02:42:19;11.80;99.90
21061;DHT22;10689;50.836;3.266;2022-10-19T02:44:55;11.80;99.90
21061;DHT22;10689;50.836;3.266;2022-10-19T02:47:38;11.80;99.90
21061;DHT22;10689;50.836;3.266;2022-10-19T02:50:07;11.80;99.90
21061;DHT22;10689;50.836;3.266;2022-10-19T02:52:36;11.80;99.90
21061;DHT22;10689;50.836;3.266;2022-10-19T02:55:03;11.80;99.90
21061;DHT22;10689;50.836;3.266;2022-10-19T02:57:29;11.80;99.90
21061;DHT22;10689;50.836;3.266;2022-10-19T02:59:57;11.80;99.90
21061;DHT22;10689;50.836;3.266;2022-10-19T03:02:23;11.80;99.90
21061;DHT22;10689;50.836;3.266;2022-10-19T03:04:50;11.80;99.90
21061;DHT22;10689;50.836;3.266;2022-10-19T03:07:18;11.80;99.90
21061;DHT22;10689;50.836;3.266;2022-10-19T03:09:44;11.90;99.90
21061;DHT22;10689;50.836;3.266;2022-10-19T03:12:12;11.90;99.90
21061;DHT22;10689;50.836;3.266;2022-10-19T03:14:38;11.90;99.90
21061;DHT22;10689;50.836;3.266;2022-10-19T03:17:04;11.90;99.90
21061;DHT22;10689;50.836;3.266;2022-10-19T03:19:31;11.80;99.90
21061;DHT22;10689;50.836;3.266;2022-10-19T03:21:57;11.80;99.90
21061;DHT22;10689;50.836;3.266;2022-10-19T03:24:22;11.90;99.90
21061;DHT22;10689;50.836;3.266;2022-10-19T03:26:48;11.90;99.90
21061;DHT22;10689;50.836;3.266;2022-10-19T03:29:14;11.80;99.90
21061;DHT22;10689;50.836;3.266;2022-10-19T03:31:40;11.90;99.90
21061;DHT22;10689;50.836;3.266;2022-10-19T03:34:05;12.00;99.90
21061;DHT22;10689;50.836;3.266;2022-10-19T03:36:33;11.90;99.90
21061;DHT22;10689;50.836;3.266;2022-10-19T03:39:03;11.80;99.90
21061;DHT22;10689;50.836;3.266;2022-10-19T03:41:31;11.80;99.90
21061;DHT22;10689;50.836;3.266;2022-10-19T03:43:58;11.80;99.90
21061;DHT22;10689;50.836;3.266;2022-10-19T03:46:25;11.80;99.90
21061;DHT22;10689;50.836;3.266;2022-10-19T03:48:51;11.70;99.90
21061;DHT22;10689;50.836;3.266;2022-10-19T03:51:20;11.80;99.90
21061;DHT22;10689;50.836;3.266;2022-10-19T03:53:46;11.80;99.90
21061;DHT22;10689;50.836;3.266;2022-10-19T03:56:15;11.80;99.90
21061;DHT22;10689;50.836;3.266;2022-10-19T03:58:42;11.80;99.90
21061;DHT22;10689;50.836;3.266;2022-10-19T04:01:11;11.80;99.90
21061;DHT22;10689;50.836;3.266;2022-10-19T04:03:38;11.80;99.90
21061;DHT22;10689;50.836;3.266;2022-10-19T04:06:06;11.70;99.90
21061;DHT22;10689;50.836;3.266;2022-10-19T04:08:32;11.60;99.90
21061;DHT22;10689;50.836;3.266;2022-10-19T04:11:02;11.60;99.90
21061;DHT22;10689;50.836;3.266;2022-10-19T04:13:29;11.70;99.90
21061;DHT22;10689;50.836;3.266;2022-10-19T04:15:55;11.70;99.90
21061;DHT22;10689;50.836;3.266;2022-10-19T04:18:21;11.60;99.90
21061;DHT22;10689;50.836;3.266;2022-10-19T04:20:46;11.60;99.90
21061;DHT22;10689;50.836;3.266;2022-10-19T04:23:12;11.60;99.90
21061;DHT22;10689;50.836;3.266;2022-10-19T04:25:39;11.60;99.90
21061;DHT22;10689;50.836;3.266;2022-10-19T04:28:04;11.50;99.90
21061;DHT22;10689;50.836;3.266;2022-10-19T04:30:30;11.50;99.90
21061;DHT22;10689;50.836;3.266;2022-10-19T04:32:57;11.50;99.90
21061;DHT22;10689;50.836;3.266;2022-10-19T04:35:22;11.50;99.90
21061;DHT22;10689;50.836;3.266;2022-10-19T04:37:48;11.50;99.90
21061;DHT22;10689;50.836;3.266;2022-10-19T04:40:14;11.40;99.90
21061;DHT22;10689;50.836;3.266;2022-10-19T04:42:40;11.40;99.90
21061;DHT22;10689;50.836;3.266;2022-10-19T04:45:06;11.40;99.90
21061;DHT22;10689;50.836;3.266;2022-10-19T04:47:32;11.40;99.90
21061;DHT22;10689;50.836;3.266;2022-10-19T04:49:58;11.40;99.90
21061;DHT22;10689;50.836;3.266;2022-10-19T04:52:23;11.40;99.90
21061;DHT22;10689;50.836;3.266;2022-10-19T04:54:49;11.40;99.90
21061;DHT22;10689;50.836;3.266;2022-10-19T04:57:15;11.40;99.90
21061;DHT22;10689;50.836;3.266;2022-10-19T04:59:41;11.30;99.90
21061;DHT22;10689;50.836;3.266;2022-10-19T05:02:06;11.30;99.90
21061;DHT22;10689;50.836;3.266;2022-10-19T05:04:32;11.30;99.90
21061;DHT22;10689;50.836;3.266;2022-10-19T05:06:58;11.20;99.90
21061;DHT22;10689;50.836;3.266;2022-10-19T05:09:24;11.20;99.90
21061;DHT22;10689;50.836;3.266;2022-10-19T05:11:50;11.20;99.90
21061;DHT22;10689;50.836;3.266;2022-10-19T05:14:15;11.10;99.90
21061;DHT22;10689;50.836;3.266;2022-10-19T05:16:41;11.10;99.90
21061;DHT22;10689;50.836;3.266;2022-10-19T05:19:12;11.20;99.90
21061;DHT22;10689;50.836;3.266;2022-10-19T05:21:38;11.20;99.90
21061;DHT22;10689;50.836;3.266;2022-10-19T05:24:04;11.20;99.90
21061;DHT22;10689;50.836;3.266;2022-10-19T05:26:29;11.10;99.90
21061;DHT22;10689;50.836;3.266;2022-10-19T05:28:59;11.00;99.90
21061;DHT22;10689;50.836;3.266;2022-10-19T05:31:31;11.00;99.90
21061;DHT22;10689;50.836;3.266;2022-10-19T05:33:57;11.00;99.90
21061;DHT22;10689;50.836;3.266;2022-10-19T05:36:32;11.10;99.90
21061;DHT22;10689;50.836;3.266;2022-10-19T05:39:02;11.00;99.90
21061;DHT22;10689;50.836;3.266;2022-10-19T05:41:28;11.00;99.90
21061;DHT22;10689;50.836;3.266;2022-10-19T05:43:56;11.00;99.90
21061;DHT22;10689;50.836;3.266;2022-10-19T05:46:22;11.00;99.90
21061;DHT22;10689;50.836;3.266;2022-10-19T05:48:48;11.10;99.90
21061;DHT22;10689;50.836;3.266;2022-10-19T05:51:19;11.10;99.90
21061;DHT22;10689;50.836;3.266;2022-10-19T05:53:45;11.00;99.90
21061;DHT22;10689;50.836;3.266;2022-10-19T05:56:17;11.00;99.90
21061;DHT22;10689;50.836;3.266;2022-10-19T05:58:43;11.10;99.90
21061;DHT22;10689;50.836;3.266;2022-10-19T06:01:10;11.00;99.90
21061;DHT22;10689;50.836;3.266;2022-10-19T06:03:36;10.90;99.90
21061;DHT22;10689;50.836;3.266;2022-10-19T06:06:04;10.90;99.90
21061;DHT22;10689;50.836;3.266;2022-10-19T06:08:30;10.80;99.90
21061;DHT22;10689;50.836;3.266;2022-10-19T06:11:10;10.80;99.90
21061;DHT22;10689;50.836;3.266;2022-10-19T06:13:37;10.80;99.90
21061;DHT22;10689;50.836;3.266;2022-10-19T06:16:04;10.80;99.90
21061;DHT22;10689;50.836;3.266;2022-10-19T06:18:30;10.80;99.90
21061;DHT22;10689;50.836;3.266;2022-10-19T06:21:01;10.80;99.90
21061;DHT22;10689;50.836;3.266;2022-10-19T06:23:27;10.80;99.90
21061;DHT22;10689;50.836;3.266;2022-10-19T06:25:53;10.90;99.90
21061;DHT22;10689;50.836;3.266;2022-10-19T06:28:18;10.90;99.90
21061;DHT22;10689;50.836;3.266;2022-10-19T06:30:44;10.90;99.90
21061;DHT22;10689;50.836;3.266;2022-10-19T06:33:10;11.00;99.90
21061;DHT22;10689;50.836;3.266;2022-10-19T06:35:36;11.00;99.90
21061;DHT22;10689;50.836;3.266;2022-10-19T06:38:03;10.90;99.90
21061;DHT22;10689;50.836;3.266;2022-10-19T06:40:28;10.90;99.90
21061;DHT22;10689;50.836;3.266;2022-10-19T06:42:55;11.00;99.90
21061;DHT22;10689;50.836;3.266;2022-10-19T06:45:21;11.10;99.90
21061;DHT22;10689;50.836;3.266;2022-10-19T06:47:47;11.10;99.90
21061;DHT22;10689;50.836;3.266;2022-10-19T06:50:12;11.10;99.90
21061;DHT22;10689;50.836;3.266;2022-10-19T06:52:38;11.10;99.90
21061;DHT22;10689;50.836;3.266;2022-10-19T06:55:05;11.20;99.90
21061;DHT22;10689;50.836;3.266;2022-10-19T06:57:31;11.20;99.90
21061;DHT22;10689;50.836;3.266;2022-10-19T06:59:57;11.30;99.90
21061;DHT22;10689;50.836;3.266;2022-10-19T07:02:22;11.30;99.90
21061;DHT22;10689;50.836;3.266;2022-10-19T07:04:49;11.30;99.90
21061;DHT22;10689;50.836;3.266;2022-10-19T07:07:15;11.30;99.90
21061;DHT22;10689;50.836;3.266;2022-10-19T07:09:40;11.50;99.90
21061;DHT22;10689;50.836;3.266;2022-10-19T07:12:06;11.50;99.90
21061;DHT22;10689;50.836;3.266;2022-10-19T07:14:35;11.60;99.90
21061;DHT22;10689;50.836;3.266;2022-10-19T07:17:04;11.60;99.90
21061;DHT22;10689;50.836;3.266;2022-10-19T07:19:30;11.60;99.90
21061;DHT22;10689;50.836;3.266;2022-10-19T07:21:56;11.70;99.90
21061;DHT22;10689;50.836;3.266;2022-10-19T07:24:22;11.70;99.90
21061;DHT22;10689;50.836;3.266;2022-10-19T07:26:48;11.70;99.90
21061;DHT22;10689;50.836;3.266;2022-10-19T07:29:14;11.90;99.90
21061;DHT22;10689;50.836;3.266;2022-10-19T07:31:40;12.00;99.90
21061;DHT22;10689;50.836;3.266;2022-10-19T07:34:06;12.00;99.90
21061;DHT22;10689;50.836;3.266;2022-10-19T07:36:33;12.00;99.90
21061;DHT22;10689;50.836;3.266;2022-10-19T07:39:01;12.00;99.90
21061;DHT22;10689;50.836;3.266;2022-10-19T07:41:27;12.10;99.90
21061;DHT22;10689;50.836;3.266;2022-10-19T07:43:54;12.10;99.90
21061;DHT22;10689;50.836;3.266;2022-10-19T07:46:22;12.10;99.90
21061;DHT22;10689;50.836;3.266;2022-10-19T07:48:54;12.10;99.90
21061;DHT22;10689;50.836;3.266;2022-10-19T07:51:22;12.10;99.90
21061;DHT22;10689;50.836;3.266;2022-10-19T07:53:48;12.10;99.90
21061;DHT22;10689;50.836;3.266;2022-10-19T07:56:19;12.20;99.90
21061;DHT22;10689;50.836;3.266;2022-10-19T07:58:46;12.20;99.90
21061;DHT22;10689;50.836;3.266;2022-10-19T08:01:17;12.20;99.90
21061;DHT22;10689;50.836;3.266;2022-10-19T08:03:43;12.30;99.90
21061;DHT22;10689;50.836;3.266;2022-10-19T08:06:11;12.40;99.90
21061;DHT22;10689;50.836;3.266;2022-10-19T08:08:38;12.50;99.90
21061;DHT22;10689;50.836;3.266;2022-10-19T08:11:23;12.50;99.90
21061;DHT22;10689;50.836;3.266;2022-10-19T08:13:49;12.60;99.90
21061;DHT22;10689;50.836;3.266;2022-10-19T08:18:52;12.50;99.90
21061;DHT22;10689;50.836;3.266;2022-10-19T08:21:20;12.60;99.90
21061;DHT22;10689;50.836;3.266;2022-10-19T08:23:46;12.70;99.90
21061;DHT22;10689;50.836;3.266;2022-10-19T08:26:12;12.70;99.90
21061;DHT22;10689;50.836;3.266;2022-10-19T08:28:37;12.60;99.90
21061;DHT22;10689;50.836;3.266;2022-10-19T08:31:18;12.70;99.90
21061;DHT22;10689;50.836;3.266;2022-10-19T08:33:44;12.90;99.90
21061;DHT22;10689;50.836;3.266;2022-10-19T08:36:11;12.90;99.90
21061;DHT22;10689;50.836;3.266;2022-10-19T08:38:38;12.90;99.90
21061;DHT22;10689;50.836;3.266;2022-10-19T08:49:40;13.20;99.90
21061;DHT22;10689;50.836;3.266;2022-10-19T08:52:21;13.30;99.90
21061;DHT22;10689;50.836;3.266;2022-10-19T08:54:53;13.40;99.90
21061;DHT22;10689;50.836;3.266;2022-10-19T08:57:23;13.60;99.90
21061;DHT22;10689;50.836;3.266;2022-10-19T09:00:07;13.60;99.90
21061;DHT22;10689;50.836;3.266;2022-10-19T09:05:39;13.90;99.90
21061;DHT22;10689;50.836;3.266;2022-10-19T09:08:08;14.10;99.90
21061;DHT22;10689;50.836;3.266;2022-10-19T09:10:39;14.10;99.90
21061;DHT22;10689;50.836;3.266;2022-10-19T09:15:50;14.30;99.90
21061;DHT22;10689;50.836;3.266;2022-10-19T09:18:20;14.30;99.90
21061;DHT22;10689;50.836;3.266;2022-10-19T09:20:52;14.30;99.90
21061;DHT22;10689;50.836;3.266;2022-10-19T09:26:21;14.40;99.90
21061;DHT22;10689;50.836;3.266;2022-10-19T09:31:54;14.50;99.90
21061;DHT22;10689;50.836;3.266;2022-10-19T09:34:25;14.50;99.90
21061;DHT22;10689;50.836;3.266;2022-10-19T09:36:58;14.50;99.90
21061;DHT22;10689;50.836;3.266;2022-10-19T09:39:25;14.60;99.90
21061;DHT22;10689;50.836;3.266;2022-10-19T09:42:16;14.60;99.90
21061;DHT22;10689;50.836;3.266;2022-10-19T09:44:43;14.70;99.90
21061;DHT22;10689;50.836;3.266;2022-10-19T09:47:34;14.90;99.90
21061;DHT22;10689;50.836;3.266;2022-10-19T09:50:23;15.00;99.90
21061;DHT22;10689;50.836;3.266;2022-10-19T09:53:02;15.20;99.90
21061;DHT22;10689;50.836;3.266;2022-10-19T09:55:40;15.20;99.90
21061;DHT22;10689;50.836;3.266;2022-10-19T10:00:40;15.20;99.90
21061;DHT22;10689;50.836;3.266;2022-10-19T10:03:30;15.30;99.90
21061;DHT22;10689;50.836;3.266;2022-10-19T10:06:07;15.40;99.90
21061;DHT22;10689;50.836;3.266;2022-10-19T10:08:39;15.60;99.90
21061;DHT22;10689;50.836;3.266;2022-10-19T10:11:26;15.70;99.90
21061;DHT22;10689;50.836;3.266;2022-10-19T10:13:53;15.80;99.90
21061;DHT22;10689;50.836;3.266;2022-10-19T10:16:24;16.00;99.90
21061;DHT22;10689;50.836;3.266;2022-10-19T10:19:06;15.80;99.90
21061;DHT22;10689;50.836;3.266;2022-10-19T10:21:55;15.90;99.90
21061;DHT22;10689;50.836;3.266;2022-10-19T10:24:23;15.80;99.90
21061;DHT22;10689;50.836;3.266;2022-10-19T10:26:56;15.80;99.90
21061;DHT22;10689;50.836;3.266;2022-10-19T10:29:30;15.90;99.90
21061;DHT22;10689;50.836;3.266;2022-10-19T10:32:06;16.00;99.90
21061;DHT22;10689;50.836;3.266;2022-10-19T10:34:36;16.10;99.90
21061;DHT22;10689;50.836;3.266;2022-10-19T10:37:04;16.20;99.90
21061;DHT22;10689;50.836;3.266;2022-10-19T10:39:31;16.20;99.90
21061;DHT22;10689;50.836;3.266;2022-10-19T10:42:04;16.20;99.90
21061;DHT22;10689;50.836;3.266;2022-10-19T10:44:32;16.30;99.90
21061;DHT22;10689;50.836;3.266;2022-10-19T10:47:03;16.40;99.90
21061;DHT22;10689;50.836;3.266;2022-10-19T10:49:37;16.50;99.90
21061;DHT22;10689;50.836;3.266;2022-10-19T10:52:09;16.50;99.90
21061;DHT22;10689;50.836;3.266;2022-10-19T10:54:37;16.70;99.90
21061;DHT22;10689;50.836;3.266;2022-10-19T10:57:20;16.70;99.90
21061;DHT22;10689;50.836;3.266;2022-10-19T11:05:45;16.80;99.90
21061;DHT22;10689;50.836;3.266;2022-10-19T11:11:12;16.80;99.90
21061;DHT22;10689;50.836;3.266;2022-10-19T11:16:51;16.80;99.90
21061;DHT22;10689;50.836;3.266;2022-10-19T11:19:36;16.80;99.90
21061;DHT22;10689;50.836;3.266;2022-10-19T11:32:58;17.00;99.90
21061;DHT22;10689;50.836;3.266;2022-10-19T11:50:06;17.90;99.90
21061;DHT22;10689;50.836;3.266;2022-10-19T11:52:54;17.90;99.90
21061;DHT22;10689;50.836;3.266;2022-10-19T11:55:41;17.90;99.90
21061;DHT22;10689;50.836;3.266;2022-10-19T12:03:57;18.50;99.90
21061;DHT22;10689;50.836;3.266;2022-10-19T12:06:45;18.80;99.90
21061;DHT22;10689;50.836;3.266;2022-10-19T12:14:50;18.70;99.90
21061;DHT22;10689;50.836;3.266;2022-10-19T12:17:28;18.40;99.90
21061;DHT22;10689;50.836;3.266;2022-10-19T12:19:58;18.30;99.90
21061;DHT22;10689;50.836;3.266;2022-10-19T12:22:28;18.30;99.90
21061;DHT22;10689;50.836;3.266;2022-10-19T12:24:57;18.20;99.90
21061;DHT22;10689;50.836;3.266;2022-10-19T12:27:34;18.30;99.90
21061;DHT22;10689;50.836;3.266;2022-10-19T12:35:54;18.40;99.90
21061;DHT22;10689;50.836;3.266;2022-10-19T12:44:05;18.40;99.90
21061;DHT22;10689;50.836;3.266;2022-10-19T12:46:47;18.50;99.90
21061;DHT22;10689;50.836;3.266;2022-10-19T12:49:43;18.60;99.90
21061;DHT22;10689;50.836;3.266;2022-10-19T12:52:10;18.60;99.90
21061;DHT22;10689;50.836;3.266;2022-10-19T12:54:38;18.80;99.90
21061;DHT22;10689;50.836;3.266;2022-10-19T12:57:21;18.60;99.90
21061;DHT22;10689;50.836;3.266;2022-10-19T12:59:57;18.50;99.90
21061;DHT22;10689;50.836;3.266;2022-10-19T13:02:31;18.40;99.90
21061;DHT22;10689;50.836;3.266;2022-10-19T13:04:59;18.50;99.90
21061;DHT22;10689;50.836;3.266;2022-10-19T13:07:25;18.60;99.90
21061;DHT22;10689;50.836;3.266;2022-10-19T13:10:55;18.60;99.90
21061;DHT22;10689;50.836;3.266;2022-10-19T13:21:44;18.80;99.90
21061;DHT22;10689;50.836;3.266;2022-10-19T13:24:26;19.10;99.90
21061;DHT22;10689;50.836;3.266;2022-10-19T13:38:10;19.20;99.90
21061;DHT22;10689;50.836;3.266;2022-10-19T13:43:21;19.20;99.90
21061;DHT22;10689;50.836;3.266;2022-10-19T13:59:52;19.50;99.90
21061;DHT22;10689;50.836;3.266;2022-10-19T14:02:33;19.60;99.90
21061;DHT22;10689;50.836;3.266;2022-10-19T14:11:23;19.70;99.90
21061;DHT22;10689;50.836;3.266;2022-10-19T14:14:26;19.70;99.90
21061;DHT22;10689;50.836;3.266;2022-10-19T14:16:58;19.60;99.90
21061;DHT22;10689;50.836;3.266;2022-10-19T14:19:31;19.30;99.90
21061;DHT22;10689;50.836;3.266;2022-10-19T14:21:59;19.20;99.90
21061;DHT22;10689;50.836;3.266;2022-10-19T14:24:31;19.20;99.90
21061;DHT22;10689;50.836;3.266;2022-10-19T14:27:05;19.10;99.90
21061;DHT22;10689;50.836;3.266;2022-10-19T14:29:42;19.00;99.90
21061;DHT22;10689;50.836;3.266;2022-10-19T14:32:09;18.90;99.90
21061;DHT22;10689;50.836;3.266;2022-10-19T14:34:44;18.90;99.90
21061;DHT22;10689;50.836;3.266;2022-10-19T14:37:20;18.90;99.90
21061;DHT22;10689;50.836;3.266;2022-10-19T14:39:57;19.00;99.90
21061;DHT22;10689;50.836;3.266;2022-10-19T14:42:23;19.10;99.90
21061;DHT22;10689;50.836;3.266;2022-10-19T14:44:49;19.30;99.90
21061;DHT22;10689;50.836;3.266;2022-10-19T14:47:22;19.30;99.90
21061;DHT22;10689;50.836;3.266;2022-10-19T14:49:51;19.40;99.90
21061;DHT22;10689;50.836;3.266;2022-10-19T14:52:21;19.30;99.90
21061;DHT22;10689;50.836;3.266;2022-10-19T14:54:53;19.40;99.90
21061;DHT22;10689;50.836;3.266;2022-10-19T14:57:25;19.40;99.90
21061;DHT22;10689;50.836;3.266;2022-10-19T14:59:57;19.50;99.90
21061;DHT22;10689;50.836;3.266;2022-10-19T15:02:31;19.70;99.90
21061;DHT22;10689;50.836;3.266;2022-10-19T15:05:00;19.80;99.90
21061;DHT22;10689;50.836;3.266;2022-10-19T15:07:36;19.80;99.90
21061;DHT22;10689;50.836;3.266;2022-10-19T15:10:07;19.70;99.90
21061;DHT22;10689;50.836;3.266;2022-10-19T15:12:40;19.60;99.90
21061;DHT22;10689;50.836;3.266;2022-10-19T15:15:15;19.40;99.90
21061;DHT22;10689;50.836;3.266;2022-10-19T15:17:54;19.40;99.90
21061;DHT22;10689;50.836;3.266;2022-10-19T15:20:26;19.40;99.90
21061;DHT22;10689;50.836;3.266;2022-10-19T15:22:52;19.20;99.90
21061;DHT22;10689;50.836;3.266;2022-10-19T15:27:57;19.00;99.90
21061;DHT22;10689;50.836;3.266;2022-10-19T15:30:26;18.80;99.90
21061;DHT22;10689;50.836;3.266;2022-10-19T15:35:38;18.60;99.90
21061;DHT22;10689;50.836;3.266;2022-10-19T15:38:11;18.40;99.90
21061;DHT22;10689;50.836;3.266;2022-10-19T15:40:43;18.30;99.90
21061;DHT22;10689;50.836;3.266;2022-10-19T15:53:54;18.00;99.90
21061;DHT22;10689;50.836;3.266;2022-10-19T15:56:21;18.00;99.90
21061;DHT22;10689;50.836;3.266;2022-10-19T15:58:51;18.00;99.90
21061;DHT22;10689;50.836;3.266;2022-10-19T16:01:22;18.00;99.90
21061;DHT22;10689;50.836;3.266;2022-10-19T16:03:48;17.90;99.90
21061;DHT22;10689;50.836;3.266;2022-10-19T16:06:15;17.90;99.90
21061;DHT22;10689;50.836;3.266;2022-10-19T16:08:42;17.80;99.90
21061;DHT22;10689;50.836;3.266;2022-10-19T16:11:18;17.80;99.90
21061;DHT22;10689;50.836;3.266;2022-10-19T16:13:44;17.70;99.90
21061;DHT22;10689;50.836;3.266;2022-10-19T16:16:22;17.70;99.90
21061;DHT22;10689;50.836;3.266;2022-10-19T16:18:49;17.60;99.90
21061;DHT22;10689;50.836;3.266;2022-10-19T16:21:15;17.50;99.90
21061;DHT22;10689;50.836;3.266;2022-10-19T16:23:44;17.40;99.90
21061;DHT22;10689;50.836;3.266;2022-10-19T16:26:14;17.40;99.90
21061;DHT22;10689;50.836;3.266;2022-10-19T16:28:41;17.30;99.90
21061;DHT22;10689;50.836;3.266;2022-10-19T16:31:07;17.20;99.90
21061;DHT22;10689;50.836;3.266;2022-10-19T16:33:33;17.20;99.90
21061;DHT22;10689;50.836;3.266;2022-10-19T16:36:03;17.10;99.90
21061;DHT22;10689;50.836;3.266;2022-10-19T16:38:29;17.00;99.90
21061;DHT22;10689;50.836;3.266;2022-10-19T16:40:57;17.00;99.90
21061;DHT22;10689;50.836;3.266;2022-10-19T16:43:23;17.10;99.90
21061;DHT22;10689;50.836;3.266;2022-10-19T16:45:49;17.00;99.90
21061;DHT22;10689;50.836;3.266;2022-10-19T16:48:14;16.90;99.90
21061;DHT22;10689;50.836;3.266;2022-10-19T16:50:40;16.80;99.90
21061;DHT22;10689;50.836;3.266;2022-10-19T16:53:08;16.70;99.90
21061;DHT22;10689;50.836;3.266;2022-10-19T16:55:35;16.60;99.90
21061;DHT22;10689;50.836;3.266;2022-10-19T16:58:01;16.50;99.90
21061;DHT22;10689;50.836;3.266;2022-10-19T17:00:27;16.40;99.90
21061;DHT22;10689;50.836;3.266;2022-10-19T17:02:53;16.40;99.90
21061;DHT22;10689;50.836;3.266;2022-10-19T17:05:19;16.30;99.90
21061;DHT22;10689;50.836;3.266;2022-10-19T17:07:44;16.30;99.90
21061;DHT22;10689;50.836;3.266;2022-10-19T17:10:10;16.30;99.90
21061;DHT22;10689;50.836;3.266;2022-10-19T17:12:38;16.30;99.90
21061;DHT22;10689;50.836;3.266;2022-10-19T17:15:05;16.30;99.90
21061;DHT22;10689;50.836;3.266;2022-10-19T17:17:31;16.20;99.90
21061;DHT22;10689;50.836;3.266;2022-10-19T17:19:57;16.10;99.90
21061;DHT22;10689;50.836;3.266;2022-10-19T17:22:23;16.10;99.90
21061;DHT22;10689;50.836;3.266;2022-10-19T17:24:49;15.90;99.90
21061;DHT22;10689;50.836;3.266;2022-10-19T17:27:14;15.90;99.90
21061;DHT22;10689;50.836;3.266;2022-10-19T17:29:40;15.90;99.90
21061;DHT22;10689;50.836;3.266;2022-10-19T17:32:06;15.90;99.90
21061;DHT22;10689;50.836;3.266;2022-10-19T17:34:31;15.90;99.90
21061;DHT22;10689;50.836;3.266;2022-10-19T17:36:57;15.80;99.90
21061;DHT22;10689;50.836;3.266;2022-10-19T17:39:24;15.80;99.90
21061;DHT22;10689;50.836;3.266;2022-10-19T17:41:50;15.80;99.90
21061;DHT22;10689;50.836;3.266;2022-10-19T17:44:20;15.80;99.90
21061;DHT22;10689;50.836;3.266;2022-10-19T17:46:46;15.80;99.90
21061;DHT22;10689;50.836;3.266;2022-10-19T17:49:13;15.80;99.90
21061;DHT22;10689;50.836;3.266;2022-10-19T17:51:39;15.70;99.90
21061;DHT22;10689;50.836;3.266;2022-10-19T17:54:10;15.70;99.90
21061;DHT22;10689;50.836;3.266;2022-10-19T17:56:37;15.70;99.90
21061;DHT22;10689;50.836;3.266;2022-10-19T17:59:03;15.60;99.90
21061;DHT22;10689;50.836;3.266;2022-10-19T18:01:29;15.60;99.90
21061;DHT22;10689;50.836;3.266;2022-10-19T18:03:55;15.60;99.90
21061;DHT22;10689;50.836;3.266;2022-10-19T18:06:27;15.50;99.90
21061;DHT22;10689;50.836;3.266;2022-10-19T18:08:55;15.50;99.90
21061;DHT22;10689;50.836;3.266;2022-10-19T18:11:23;15.50;99.90
21061;DHT22;10689;50.836;3.266;2022-10-19T18:13:50;15.40;99.90
21061;DHT22;10689;50.836;3.266;2022-10-19T18:16:25;15.30;99.90
21061;DHT22;10689;50.836;3.266;2022-10-19T18:18:54;15.30;99.90
21061;DHT22;10689;50.836;3.266;2022-10-19T18:21:23;15.20;99.90
21061;DHT22;10689;50.836;3.266;2022-10-19T18:23:51;15.10;99.90
21061;DHT22;10689;50.836;3.266;2022-10-19T18:26:19;15.10;99.90
21061;DHT22;10689;50.836;3.266;2022-10-19T18:28:47;15.10;99.90
21061;DHT22;10689;50.836;3.266;2022-10-19T18:31:21;15.10;99.90